sensor_id;sensor_type;location;lat;lon;timestamp;P1;durP1;ratioP1;P2;durP2;ratioP2
58982;SDS011;44771;49.982;8.560;2023-04-06T00:03:47;18.08;;;16.52;;
58982;SDS011;44771;49.982;8.560;2023-04-06T00:08:49;19.80;;;18.10;;
58982;SDS011;44771;49.982;8.560;2023-04-06T00:13:52;19.52;;;17.80;;
58982;SDS011;44771;49.982;8.560;2023-04-06T00:18:54;19.33;;;17.67;;
58982;SDS011;44771;49.982;8.560;2023-04-06T00:23:56;20.73;;;18.85;;
58982;SDS011;44771;49.982;8.560;2023-04-06T00:28:59;18.55;;;17.10;;
58982;SDS011;44771;49.982;8.560;2023-04-06T00:34:01;18.42;;;17.02;;
58982;SDS011;44771;49.982;8.560;2023-04-06T00:39:03;18.62;;;16.90;;
58982;SDS011;44771;49.982;8.560;2023-04-06T00:44:06;21.23;;;19.25;;
58982;SDS011;44771;49.982;8.560;2023-04-06T00:49:08;21.62;;;19.52;;
58982;SDS011;44771;49.982;8.560;2023-04-06T00:54:10;18.40;;;16.70;;
58982;SDS011;44771;49.982;8.560;2023-04-06T00:59:13;19.05;;;17.55;;
58982;SDS011;44771;49.982;8.560;2023-04-06T01:04:15;19.00;;;17.08;;
58982;SDS011;44771;49.982;8.560;2023-04-06T01:09:17;18.33;;;16.52;;
58982;SDS011;44771;49.982;8.560;2023-04-06T01:14:20;21.73;;;17.62;;
58982;SDS011;44771;49.982;8.560;2023-04-06T01:19:22;18.58;;;16.80;;
58982;SDS011;44771;49.982;8.560;2023-04-06T01:24:25;18.02;;;16.52;;
58982;SDS011;44771;49.982;8.560;2023-04-06T01:29:27;20.25;;;18.73;;
58982;SDS011;44771;49.982;8.560;2023-04-06T01:34:29;18.85;;;17.05;;
58982;SDS011;44771;49.982;8.560;2023-04-06T01:39:32;20.42;;;18.60;;
58982;SDS011;44771;49.982;8.560;2023-04-06T01:44:34;19.25;;;17.48;;
58982;SDS011;44771;49.982;8.560;2023-04-06T01:49:35;17.83;;;15.88;;
58982;SDS011;44771;49.982;8.560;2023-04-06T01:54:39;18.80;;;16.98;;
58982;SDS011;44771;49.982;8.560;2023-04-06T01:59:41;18.73;;;16.92;;
58982;SDS011;44771;49.982;8.560;2023-04-06T02:04:43;19.65;;;17.37;;
58982;SDS011;44771;49.982;8.560;2023-04-06T02:09:46;19.12;;;17.62;;
58982;SDS011;44771;49.982;8.560;2023-04-06T02:14:48;18.80;;;17.10;;
58982;SDS011;44771;49.982;8.560;2023-04-06T02:19:49;24.95;;;17.77;;
58982;SDS011;44771;49.982;8.560;2023-04-06T02:24:53;17.90;;;16.10;;
58982;SDS011;44771;49.982;8.560;2023-04-06T02:29:54;19.50;;;17.70;;
58982;SDS011;44771;49.982;8.560;2023-04-06T02:34:56;20.05;;;18.00;;
58982;SDS011;44771;49.982;8.560;2023-04-06T02:39:59;17.58;;;15.88;;
58982;SDS011;44771;49.982;8.560;2023-04-06T02:45:01;18.58;;;16.98;;
58982;SDS011;44771;49.982;8.560;2023-04-06T02:50:04;19.42;;;17.10;;
58982;SDS011;44771;49.982;8.560;2023-04-06T02:55:08;18.45;;;16.67;;
58982;SDS011;44771;49.982;8.560;2023-04-06T03:00:10;17.03;;;15.57;;
58982;SDS011;44771;49.982;8.560;2023-04-06T03:05:13;19.45;;;17.48;;
58982;SDS011;44771;49.982;8.560;2023-04-06T03:10:16;19.35;;;17.42;;
58982;SDS011;44771;49.982;8.560;2023-04-06T03:15:18;17.10;;;15.30;;
58982;SDS011;44771;49.982;8.560;2023-04-06T03:20:20;18.98;;;17.23;;
58982;SDS011;44771;49.982;8.560;2023-04-06T03:25:23;20.77;;;18.58;;
58982;SDS011;44771;49.982;8.560;2023-04-06T03:30:25;21.52;;;19.45;;
58982;SDS011;44771;49.982;8.560;2023-04-06T03:35:26;18.98;;;17.20;;
58982;SDS011;44771;49.982;8.560;2023-04-06T03:40:30;18.73;;;17.00;;
58982;SDS011;44771;49.982;8.560;2023-04-06T03:45:32;18.40;;;16.80;;
58982;SDS011;44771;49.982;8.560;2023-04-06T03:50:33;18.87;;;17.35;;
58982;SDS011;44771;49.982;8.560;2023-04-06T03:55:37;19.95;;;17.83;;
58982;SDS011;44771;49.982;8.560;2023-04-06T04:00:38;19.25;;;17.80;;
58982;SDS011;44771;49.982;8.560;2023-04-06T04:05:40;18.25;;;16.55;;
58982;SDS011;44771;49.982;8.560;2023-04-06T04:10:43;22.65;;;18.00;;
58982;SDS011;44771;49.982;8.560;2023-04-06T04:15:45;19.42;;;17.70;;
58982;SDS011;44771;49.982;8.560;2023-04-06T04:20:47;17.23;;;15.50;;
58982;SDS011;44771;49.982;8.560;2023-04-06T04:25:50;19.25;;;17.42;;
58982;SDS011;44771;49.982;8.560;2023-04-06T04:30:51;18.37;;;16.70;;
58982;SDS011;44771;49.982;8.560;2023-04-06T04:35:53;17.62;;;16.12;;
58982;SDS011;44771;49.982;8.560;2023-04-06T04:40:56;19.20;;;17.50;;
58982;SDS011;44771;49.982;8.560;2023-04-06T04:45:58;18.08;;;16.33;;
58982;SDS011;44771;49.982;8.560;2023-04-06T04:51:00;19.58;;;17.80;;
58982;SDS011;44771;49.982;8.560;2023-04-06T04:56:03;18.02;;;16.37;;
58982;SDS011;44771;49.982;8.560;2023-04-06T05:01:05;19.27;;;17.57;;
58982;SDS011;44771;49.982;8.560;2023-04-06T05:06:07;21.60;;;19.60;;
58982;SDS011;44771;49.982;8.560;2023-04-06T05:11:13;17.62;;;15.82;;
58982;SDS011;44771;49.982;8.560;2023-04-06T05:16:15;19.05;;;17.23;;
58982;SDS011;44771;49.982;8.560;2023-04-06T05:21:18;17.77;;;16.20;;
58982;SDS011;44771;49.982;8.560;2023-04-06T05:26:21;22.02;;;19.08;;
58982;SDS011;44771;49.982;8.560;2023-04-06T05:31:23;19.17;;;17.23;;
58982;SDS011;44771;49.982;8.560;2023-04-06T05:36:25;20.25;;;18.25;;
58982;SDS011;44771;49.982;8.560;2023-04-06T05:41:28;24.35;;;17.62;;
58982;SDS011;44771;49.982;8.560;2023-04-06T05:46:30;21.25;;;19.23;;
58982;SDS011;44771;49.982;8.560;2023-04-06T05:51:32;24.37;;;17.90;;
58982;SDS011;44771;49.982;8.560;2023-04-06T05:56:36;17.55;;;16.05;;
58982;SDS011;44771;49.982;8.560;2023-04-06T06:01:37;20.00;;;18.13;;
58982;SDS011;44771;49.982;8.560;2023-04-06T06:06:39;22.25;;;19.95;;
58982;SDS011;44771;49.982;8.560;2023-04-06T06:11:42;21.80;;;18.70;;
58982;SDS011;44771;49.982;8.560;2023-04-06T06:16:44;24.90;;;19.05;;
58982;SDS011;44771;49.982;8.560;2023-04-06T06:21:46;21.50;;;19.27;;
58982;SDS011;44771;49.982;8.560;2023-04-06T06:26:49;23.70;;;19.90;;
58982;SDS011;44771;49.982;8.560;2023-04-06T06:31:51;26.67;;;20.58;;
58982;SDS011;44771;49.982;8.560;2023-04-06T06:36:53;22.80;;;19.62;;
58982;SDS011;44771;49.982;8.560;2023-04-06T06:41:56;40.35;;;24.30;;
58982;SDS011;44771;49.982;8.560;2023-04-06T06:46:58;28.60;;;21.08;;
58982;SDS011;44771;49.982;8.560;2023-04-06T06:51:59;29.58;;;22.42;;
58982;SDS011;44771;49.982;8.560;2023-04-06T06:57:03;29.37;;;21.55;;
58982;SDS011;44771;49.982;8.560;2023-04-06T07:02:04;26.85;;;22.48;;
58982;SDS011;44771;49.982;8.560;2023-04-06T07:07:06;27.50;;;23.58;;
58982;SDS011;44771;49.982;8.560;2023-04-06T07:17:27;26.83;;;21.75;;
58982;SDS011;44771;49.982;8.560;2023-04-06T07:22:29;27.52;;;22.62;;
58982;SDS011;44771;49.982;8.560;2023-04-06T07:27:32;33.00;;;23.38;;
58982;SDS011;44771;49.982;8.560;2023-04-06T07:32:34;25.88;;;22.95;;
58982;SDS011;44771;49.982;8.560;2023-04-06T07:37:36;25.75;;;22.50;;
58982;SDS011;44771;49.982;8.560;2023-04-06T07:42:39;27.52;;;22.52;;
58982;SDS011;44771;49.982;8.560;2023-04-06T07:47:44;27.60;;;21.77;;
58982;SDS011;44771;49.982;8.560;2023-04-06T07:52:53;25.00;;;22.25;;
58982;SDS011;44771;49.982;8.560;2023-04-06T07:58:05;22.85;;;20.48;;
58982;SDS011;44771;49.982;8.560;2023-04-06T08:03:07;24.58;;;20.75;;
58982;SDS011;44771;49.982;8.560;2023-04-06T08:08:09;26.73;;;21.95;;
58982;SDS011;44771;49.982;8.560;2023-04-06T08:13:12;24.40;;;21.77;;
58982;SDS011;44771;49.982;8.560;2023-04-06T08:18:14;22.33;;;19.92;;
58982;SDS011;44771;49.982;8.560;2023-04-06T08:23:16;27.60;;;22.27;;
58982;SDS011;44771;49.982;8.560;2023-04-06T08:28:19;27.20;;;22.33;;
58982;SDS011;44771;49.982;8.560;2023-04-06T08:33:21;24.92;;;21.45;;
58982;SDS011;44771;49.982;8.560;2023-04-06T08:38:23;28.70;;;20.55;;
58982;SDS011;44771;49.982;8.560;2023-04-06T08:43:26;26.42;;;21.05;;
58982;SDS011;44771;49.982;8.560;2023-04-06T08:53:34;21.37;;;19.17;;
58982;SDS011;44771;49.982;8.560;2023-04-06T08:58:39;23.48;;;19.83;;
58982;SDS011;44771;49.982;8.560;2023-04-06T09:03:41;25.52;;;20.60;;
58982;SDS011;44771;49.982;8.560;2023-04-06T09:08:44;24.08;;;21.12;;
58982;SDS011;44771;49.982;8.560;2023-04-06T09:13:49;21.77;;;19.37;;
58982;SDS011;44771;49.982;8.560;2023-04-06T09:18:52;23.15;;;20.30;;
58982;SDS011;44771;49.982;8.560;2023-04-06T09:23:58;20.17;;;16.65;;
58982;SDS011;44771;49.982;8.560;2023-04-06T09:29:01;21.35;;;19.10;;
58982;SDS011;44771;49.982;8.560;2023-04-06T09:34:03;21.75;;;18.60;;
58982;SDS011;44771;49.982;8.560;2023-04-06T09:39:05;19.75;;;16.87;;
58982;SDS011;44771;49.982;8.560;2023-04-06T09:44:09;20.90;;;17.12;;
58982;SDS011;44771;49.982;8.560;2023-04-06T09:49:12;21.85;;;19.55;;
58982;SDS011;44771;49.982;8.560;2023-04-06T09:54:15;21.08;;;16.00;;
58982;SDS011;44771;49.982;8.560;2023-04-06T09:59:24;25.48;;;17.73;;
58982;SDS011;44771;49.982;8.560;2023-04-06T10:04:36;23.95;;;17.90;;
58982;SDS011;44771;49.982;8.560;2023-04-06T10:09:43;21.35;;;16.58;;
58982;SDS011;44771;49.982;8.560;2023-04-06T10:14:48;25.85;;;19.02;;
58982;SDS011;44771;49.982;8.560;2023-04-06T10:19:53;24.30;;;18.20;;
58982;SDS011;44771;49.982;8.560;2023-04-06T10:25:00;24.02;;;18.10;;
58982;SDS011;44771;49.982;8.560;2023-04-06T10:30:04;18.52;;;15.55;;
58982;SDS011;44771;49.982;8.560;2023-04-06T10:35:08;25.75;;;19.42;;
58982;SDS011;44771;49.982;8.560;2023-04-06T10:40:17;30.02;;;17.55;;
58982;SDS011;44771;49.982;8.560;2023-04-06T10:45:22;25.80;;;18.12;;
58982;SDS011;44771;49.982;8.560;2023-04-06T10:50:24;28.92;;;19.00;;
58982;SDS011;44771;49.982;8.560;2023-04-06T10:55:26;24.70;;;16.98;;
58982;SDS011;44771;49.982;8.560;2023-04-06T11:00:30;22.52;;;17.65;;
58982;SDS011;44771;49.982;8.560;2023-04-06T11:05:50;22.50;;;17.95;;
58982;SDS011;44771;49.982;8.560;2023-04-06T11:11:03;21.23;;;17.48;;
58982;SDS011;44771;49.982;8.560;2023-04-06T11:16:07;21.37;;;18.30;;
58982;SDS011;44771;49.982;8.560;2023-04-06T11:21:13;20.48;;;16.62;;
58982;SDS011;44771;49.982;8.560;2023-04-06T11:26:15;19.55;;;15.90;;
58982;SDS011;44771;49.982;8.560;2023-04-06T11:31:18;22.08;;;17.33;;
58982;SDS011;44771;49.982;8.560;2023-04-06T11:36:20;24.05;;;18.00;;
58982;SDS011;44771;49.982;8.560;2023-04-06T11:41:23;22.73;;;18.85;;
58982;SDS011;44771;49.982;8.560;2023-04-06T11:46:26;23.02;;;17.95;;
58982;SDS011;44771;49.982;8.560;2023-04-06T11:51:28;21.33;;;18.90;;
58982;SDS011;44771;49.982;8.560;2023-04-06T11:56:29;25.88;;;18.27;;
58982;SDS011;44771;49.982;8.560;2023-04-06T12:01:33;27.60;;;18.42;;
58982;SDS011;44771;49.982;8.560;2023-04-06T12:06:39;23.00;;;17.65;;
58982;SDS011;44771;49.982;8.560;2023-04-06T12:11:41;25.85;;;19.23;;
58982;SDS011;44771;49.982;8.560;2023-04-06T12:16:44;23.48;;;17.33;;
58982;SDS011;44771;49.982;8.560;2023-04-06T12:21:46;24.42;;;18.08;;
58982;SDS011;44771;49.982;8.560;2023-04-06T12:26:48;23.17;;;18.48;;
58982;SDS011;44771;49.982;8.560;2023-04-06T12:32:01;22.50;;;17.62;;
58982;SDS011;44771;49.982;8.560;2023-04-06T12:37:03;24.30;;;19.40;;
58982;SDS011;44771;49.982;8.560;2023-04-06T12:42:07;23.62;;;18.48;;
58982;SDS011;44771;49.982;8.560;2023-04-06T12:47:17;20.15;;;18.00;;
58982;SDS011;44771;49.982;8.560;2023-04-06T12:52:19;25.75;;;18.50;;
58982;SDS011;44771;49.982;8.560;2023-04-06T12:57:20;23.48;;;17.92;;
58982;SDS011;44771;49.982;8.560;2023-04-06T13:02:24;22.30;;;17.58;;
58982;SDS011;44771;49.982;8.560;2023-04-06T13:07:26;21.62;;;16.98;;
58982;SDS011;44771;49.982;8.560;2023-04-06T13:12:27;20.00;;;17.42;;
58982;SDS011;44771;49.982;8.560;2023-04-06T13:17:31;23.77;;;17.87;;
58982;SDS011;44771;49.982;8.560;2023-04-06T13:22:33;21.75;;;16.87;;
58982;SDS011;44771;49.982;8.560;2023-04-06T13:27:35;18.00;;;16.08;;
58982;SDS011;44771;49.982;8.560;2023-04-06T13:32:39;19.20;;;16.87;;
58982;SDS011;44771;49.982;8.560;2023-04-06T13:37:40;18.33;;;16.42;;
58982;SDS011;44771;49.982;8.560;2023-04-06T13:42:42;17.98;;;16.17;;
58982;SDS011;44771;49.982;8.560;2023-04-06T13:47:45;18.87;;;15.48;;
58982;SDS011;44771;49.982;8.560;2023-04-06T13:52:47;18.87;;;16.30;;
58982;SDS011;44771;49.982;8.560;2023-04-06T13:57:50;18.17;;;16.00;;
58982;SDS011;44771;49.982;8.560;2023-04-06T14:02:54;19.30;;;15.57;;
58982;SDS011;44771;49.982;8.560;2023-04-06T14:07:56;18.33;;;15.97;;
58982;SDS011;44771;49.982;8.560;2023-04-06T14:12:58;19.45;;;16.08;;
58982;SDS011;44771;49.982;8.560;2023-04-06T14:18:01;17.30;;;14.98;;
58982;SDS011;44771;49.982;8.560;2023-04-06T14:23:03;17.92;;;14.80;;
58982;SDS011;44771;49.982;8.560;2023-04-06T14:28:05;17.90;;;16.17;;
58982;SDS011;44771;49.982;8.560;2023-04-06T14:33:08;17.60;;;15.75;;
58982;SDS011;44771;49.982;8.560;2023-04-06T14:38:09;18.98;;;17.08;;
58982;SDS011;44771;49.982;8.560;2023-04-06T14:43:11;18.17;;;16.08;;
58982;SDS011;44771;49.982;8.560;2023-04-06T14:48:14;21.20;;;17.20;;
58982;SDS011;44771;49.982;8.560;2023-04-06T14:53:16;19.50;;;16.35;;
58982;SDS011;44771;49.982;8.560;2023-04-06T14:58:18;17.60;;;15.73;;
58982;SDS011;44771;49.982;8.560;2023-04-06T15:03:22;20.33;;;16.67;;
58982;SDS011;44771;49.982;8.560;2023-04-06T15:08:24;21.17;;;17.62;;
58982;SDS011;44771;49.982;8.560;2023-04-06T15:13:26;24.33;;;15.82;;
58982;SDS011;44771;49.982;8.560;2023-04-06T15:18:29;20.77;;;16.73;;
58982;SDS011;44771;49.982;8.560;2023-04-06T15:23:31;19.70;;;14.80;;
58982;SDS011;44771;49.982;8.560;2023-04-06T15:28:32;20.70;;;14.07;;
58982;SDS011;44771;49.982;8.560;2023-04-06T15:33:35;18.15;;;15.30;;
58982;SDS011;44771;49.982;8.560;2023-04-06T15:38:37;14.50;;;13.23;;
58982;SDS011;44771;49.982;8.560;2023-04-06T15:43:39;13.50;;;12.23;;
58982;SDS011;44771;49.982;8.560;2023-04-06T15:48:42;15.52;;;14.18;;
58982;SDS011;44771;49.982;8.560;2023-04-06T15:53:45;15.65;;;14.23;;
58982;SDS011;44771;49.982;8.560;2023-04-06T15:58:46;14.13;;;12.90;;
58982;SDS011;44771;49.982;8.560;2023-04-06T16:03:50;14.05;;;12.63;;
58982;SDS011;44771;49.982;8.560;2023-04-06T16:08:52;15.00;;;13.65;;
58982;SDS011;44771;49.982;8.560;2023-04-06T16:13:54;17.25;;;12.90;;
58982;SDS011;44771;49.982;8.560;2023-04-06T16:18:57;15.55;;;13.60;;
58982;SDS011;44771;49.982;8.560;2023-04-06T16:23:59;13.73;;;12.48;;
58982;SDS011;44771;49.982;8.560;2023-04-06T16:29:00;14.30;;;12.85;;
58982;SDS011;44771;49.982;8.560;2023-04-06T16:34:04;14.95;;;13.73;;
58982;SDS011;44771;49.982;8.560;2023-04-06T16:39:05;14.82;;;13.32;;
58982;SDS011;44771;49.982;8.560;2023-04-06T16:44:08;15.45;;;13.95;;
58982;SDS011;44771;49.982;8.560;2023-04-06T16:49:11;14.55;;;13.05;;
58982;SDS011;44771;49.982;8.560;2023-04-06T16:54:13;13.52;;;12.20;;
58982;SDS011;44771;49.982;8.560;2023-04-06T16:59:14;15.18;;;13.82;;
58982;SDS011;44771;49.982;8.560;2023-04-06T17:04:18;16.30;;;13.07;;
58982;SDS011;44771;49.982;8.560;2023-04-06T17:09:21;12.82;;;11.93;;
58982;SDS011;44771;49.982;8.560;2023-04-06T17:14:25;13.07;;;11.98;;
58982;SDS011;44771;49.982;8.560;2023-04-06T17:19:28;12.68;;;11.77;;
58982;SDS011;44771;49.982;8.560;2023-04-06T17:24:30;11.52;;;10.70;;
58982;SDS011;44771;49.982;8.560;2023-04-06T17:29:34;13.98;;;13.05;;
58982;SDS011;44771;49.982;8.560;2023-04-06T17:34:37;14.35;;;13.30;;
58982;SDS011;44771;49.982;8.560;2023-04-06T17:39:39;15.57;;;14.38;;
58982;SDS011;44771;49.982;8.560;2023-04-06T17:44:41;14.77;;;13.38;;
58982;SDS011;44771;49.982;8.560;2023-04-06T17:49:44;14.50;;;13.35;;
58982;SDS011;44771;49.982;8.560;2023-04-06T17:54:48;13.35;;;12.27;;
58982;SDS011;44771;49.982;8.560;2023-04-06T17:59:50;15.50;;;14.23;;
58982;SDS011;44771;49.982;8.560;2023-04-06T18:04:53;15.52;;;14.10;;
58982;SDS011;44771;49.982;8.560;2023-04-06T18:09:55;14.80;;;13.57;;
58982;SDS011;44771;49.982;8.560;2023-04-06T18:14:57;14.32;;;13.02;;
58982;SDS011;44771;49.982;8.560;2023-04-06T18:20:00;14.77;;;13.50;;
58982;SDS011;44771;49.982;8.560;2023-04-06T18:25:02;14.57;;;13.43;;
58982;SDS011;44771;49.982;8.560;2023-04-06T18:30:05;14.18;;;12.93;;
58982;SDS011;44771;49.982;8.560;2023-04-06T18:35:09;15.75;;;14.25;;
58982;SDS011;44771;49.982;8.560;2023-04-06T18:45:31;16.60;;;14.95;;
58982;SDS011;44771;49.982;8.560;2023-04-06T18:50:34;15.40;;;14.20;;
58982;SDS011;44771;49.982;8.560;2023-04-06T18:55:36;15.68;;;14.52;;
58982;SDS011;44771;49.982;8.560;2023-04-06T19:00:38;18.58;;;16.75;;
58982;SDS011;44771;49.982;8.560;2023-04-06T19:05:42;17.80;;;15.75;;
58982;SDS011;44771;49.982;8.560;2023-04-06T19:10:44;17.70;;;15.90;;
58982;SDS011;44771;49.982;8.560;2023-04-06T19:15:45;18.48;;;16.83;;
58982;SDS011;44771;49.982;8.560;2023-04-06T19:20:48;17.25;;;15.52;;
58982;SDS011;44771;49.982;8.560;2023-04-06T19:25:50;15.82;;;14.48;;
58982;SDS011;44771;49.982;8.560;2023-04-06T19:30:54;17.08;;;15.48;;
58982;SDS011;44771;49.982;8.560;2023-04-06T19:35:57;18.58;;;16.92;;
58982;SDS011;44771;49.982;8.560;2023-04-06T19:40:59;16.60;;;15.00;;
58982;SDS011;44771;49.982;8.560;2023-04-06T19:46:01;17.20;;;15.57;;
58982;SDS011;44771;49.982;8.560;2023-04-06T19:51:05;17.17;;;15.60;;
58982;SDS011;44771;49.982;8.560;2023-04-06T19:56:09;18.60;;;16.50;;
58982;SDS011;44771;49.982;8.560;2023-04-06T20:01:11;18.52;;;16.77;;
58982;SDS011;44771;49.982;8.560;2023-04-06T20:06:15;18.20;;;16.33;;
58982;SDS011;44771;49.982;8.560;2023-04-06T20:11:16;27.70;;;16.23;;
58982;SDS011;44771;49.982;8.560;2023-04-06T20:16:18;18.35;;;16.42;;
58982;SDS011;44771;49.982;8.560;2023-04-06T20:21:22;18.08;;;16.20;;
58982;SDS011;44771;49.982;8.560;2023-04-06T20:26:23;19.50;;;17.58;;
58982;SDS011;44771;49.982;8.560;2023-04-06T20:31:25;19.33;;;17.58;;
58982;SDS011;44771;49.982;8.560;2023-04-06T20:36:30;19.95;;;17.77;;
58982;SDS011;44771;49.982;8.560;2023-04-06T20:41:32;21.65;;;18.70;;
58982;SDS011;44771;49.982;8.560;2023-04-06T20:46:34;23.02;;;18.87;;
58982;SDS011;44771;49.982;8.560;2023-04-06T20:51:37;24.92;;;20.23;;
58982;SDS011;44771;49.982;8.560;2023-04-06T20:56:39;20.50;;;18.23;;
58982;SDS011;44771;49.982;8.560;2023-04-06T21:01:41;23.17;;;18.25;;
58982;SDS011;44771;49.982;8.560;2023-04-06T21:06:44;23.20;;;19.48;;
58982;SDS011;44771;49.982;8.560;2023-04-06T21:11:46;25.52;;;19.95;;
58982;SDS011;44771;49.982;8.560;2023-04-06T21:16:48;24.42;;;19.75;;
58982;SDS011;44771;49.982;8.560;2023-04-06T21:21:51;25.83;;;19.77;;
58982;SDS011;44771;49.982;8.560;2023-04-06T21:26:53;27.23;;;20.35;;
58982;SDS011;44771;49.982;8.560;2023-04-06T21:31:55;30.98;;;21.52;;
58982;SDS011;44771;49.982;8.560;2023-04-06T21:36:58;29.37;;;21.62;;
58982;SDS011;44771;49.982;8.560;2023-04-06T21:42:00;29.30;;;21.62;;
58982;SDS011;44771;49.982;8.560;2023-04-06T21:47:02;34.42;;;22.65;;
58982;SDS011;44771;49.982;8.560;2023-04-06T21:52:05;31.23;;;21.77;;
58982;SDS011;44771;49.982;8.560;2023-04-06T21:57:07;36.13;;;24.45;;
58982;SDS011;44771;49.982;8.560;2023-04-06T22:02:09;36.30;;;22.55;;
58982;SDS011;44771;49.982;8.560;2023-04-06T22:07:12;36.20;;;25.88;;
58982;SDS011;44771;49.982;8.560;2023-04-06T22:12:14;42.00;;;24.50;;
58982;SDS011;44771;49.982;8.560;2023-04-06T22:17:16;36.78;;;25.55;;
58982;SDS011;44771;49.982;8.560;2023-04-06T22:22:19;42.00;;;26.75;;
58982;SDS011;44771;49.982;8.560;2023-04-06T22:32:24;40.95;;;24.27;;
58982;SDS011;44771;49.982;8.560;2023-04-06T22:37:28;42.88;;;26.02;;
58982;SDS011;44771;49.982;8.560;2023-04-06T22:42:29;40.90;;;26.15;;
58982;SDS011;44771;49.982;8.560;2023-04-06T22:47:31;40.78;;;25.15;;
58982;SDS011;44771;49.982;8.560;2023-04-06T22:52:36;38.42;;;23.98;;
58982;SDS011;44771;49.982;8.560;2023-04-06T22:57:38;37.60;;;24.80;;
58982;SDS011;44771;49.982;8.560;2023-04-06T23:02:42;34.85;;;24.52;;
58982;SDS011;44771;49.982;8.560;2023-04-06T23:07:46;38.80;;;24.20;;
58982;SDS011;44771;49.982;8.560;2023-04-06T23:12:47;38.38;;;23.87;;
58982;SDS011;44771;49.982;8.560;2023-04-06T23:17:49;37.15;;;24.58;;
58982;SDS011;44771;49.982;8.560;2023-04-06T23:22:52;41.63;;;25.55;;
58982;SDS011;44771;49.982;8.560;2023-04-06T23:27:54;42.15;;;25.55;;
58982;SDS011;44771;49.982;8.560;2023-04-06T23:32:56;43.05;;;26.20;;
58982;SDS011;44771;49.982;8.560;2023-04-06T23:38:01;44.40;;;26.85;;
58982;SDS011;44771;49.982;8.560;2023-04-06T23:43:03;40.38;;;25.98;;
58982;SDS011;44771;49.982;8.560;2023-04-06T23:48:04;38.75;;;24.25;;
58982;SDS011;44771;49.982;8.560;2023-04-06T23:53:08;43.78;;;26.37;;
58982;SDS011;44771;49.982;8.560;2023-04-06T23:58:09;40.88;;;25.92;;
